sensor_id;sensor_type;location;lat;lon;timestamp;temperature;humidity
75088;HTU21D;63664;44.868;40.600;2023-08-17T00:00:46;24.95;44.69
75088;HTU21D;63664;44.868;40.600;2023-08-17T00:03:13;24.93;44.78
75088;HTU21D;63664;44.868;40.600;2023-08-17T00:05:40;24.89;44.94
75088;HTU21D;63664;44.868;40.600;2023-08-17T00:08:06;24.87;45.12
75088;HTU21D;63664;44.868;40.600;2023-08-17T00:10:33;24.84;45.25
75088;HTU21D;63664;44.868;40.600;2023-08-17T00:12:59;24.82;45.44
75088;HTU21D;63664;44.868;40.600;2023-08-17T00:15:26;24.77;45.73
75088;HTU21D;63664;44.868;40.600;2023-08-17T00:17:52;24.72;45.96
75088;HTU21D;63664;44.868;40.600;2023-08-17T00:20:19;24.65;46.24
75088;HTU21D;63664;44.868;40.600;2023-08-17T00:22:45;24.61;46.49
75088;HTU21D;63664;44.868;40.600;2023-08-17T00:25:11;24.58;46.73
75088;HTU21D;63664;44.868;40.600;2023-08-17T00:27:37;24.51;46.88
75088;HTU21D;63664;44.868;40.600;2023-08-17T00:30:04;24.46;47.19
75088;HTU21D;63664;44.868;40.600;2023-08-17T00:32:30;24.41;47.41
75088;HTU21D;63664;44.868;40.600;2023-08-17T00:34:57;24.32;47.70
75088;HTU21D;63664;44.868;40.600;2023-08-17T00:37:23;24.27;47.99
75088;HTU21D;63664;44.868;40.600;2023-08-17T00:39:49;24.21;48.21
75088;HTU21D;63664;44.868;40.600;2023-08-17T00:42:15;24.16;48.49
75088;HTU21D;63664;44.868;40.600;2023-08-17T00:44:42;24.10;48.76
75088;HTU21D;63664;44.868;40.600;2023-08-17T00:47:08;24.02;49.02
75088;HTU21D;63664;44.868;40.600;2023-08-17T00:49:35;23.95;49.27
75088;HTU21D;63664;44.868;40.600;2023-08-17T00:52:02;23.88;49.52
75088;HTU21D;63664;44.868;40.600;2023-08-17T00:54:31;23.85;49.74
75088;HTU21D;63664;44.868;40.600;2023-08-17T00:56:57;23.80;49.95
75088;HTU21D;63664;44.868;40.600;2023-08-17T00:59:25;23.74;50.26
75088;HTU21D;63664;44.868;40.600;2023-08-17T01:01:52;23.69;50.44
75088;HTU21D;63664;44.868;40.600;2023-08-17T01:04:18;23.64;50.62
75088;HTU21D;63664;44.868;40.600;2023-08-17T01:06:45;23.58;50.82
75088;HTU21D;63664;44.868;40.600;2023-08-17T01:09:12;23.55;51.04
75088;HTU21D;63664;44.868;40.600;2023-08-17T01:12:06;23.51;51.27
75088;HTU21D;63664;44.868;40.600;2023-08-17T01:14:53;23.44;51.33
75088;HTU21D;63664;44.868;40.600;2023-08-17T01:17:43;23.39;51.57
75088;HTU21D;63664;44.868;40.600;2023-08-17T01:20:09;23.34;50.77
75088;HTU21D;63664;44.868;40.600;2023-08-17T01:22:41;23.26;51.35
75088;HTU21D;63664;44.868;40.600;2023-08-17T01:25:09;23.20;51.79
75088;HTU21D;63664;44.868;40.600;2023-08-17T01:27:45;23.14;52.10
75088;HTU21D;63664;44.868;40.600;2023-08-17T01:30:15;23.11;52.40
75088;HTU21D;63664;44.868;40.600;2023-08-17T01:32:58;23.07;52.64
75088;HTU21D;63664;44.868;40.600;2023-08-17T01:35:30;23.01;52.78
75088;HTU21D;63664;44.868;40.600;2023-08-17T01:38:02;22.96;53.16
75088;HTU21D;63664;44.868;40.600;2023-08-17T01:40:34;22.90;53.37
75088;HTU21D;63664;44.868;40.600;2023-08-17T01:43:02;22.87;53.64
75088;HTU21D;63664;44.868;40.600;2023-08-17T01:45:29;22.84;53.75
75088;HTU21D;63664;44.868;40.600;2023-08-17T01:47:56;22.82;53.97
75088;HTU21D;63664;44.868;40.600;2023-08-17T01:50:22;22.79;54.16
75088;HTU21D;63664;44.868;40.600;2023-08-17T01:52:49;22.75;54.41
75088;HTU21D;63664;44.868;40.600;2023-08-17T01:55:17;22.70;54.60
75088;HTU21D;63664;44.868;40.600;2023-08-17T01:57:43;22.67;54.78
75088;HTU21D;63664;44.868;40.600;2023-08-17T02:00:10;22.63;54.97
75088;HTU21D;63664;44.868;40.600;2023-08-17T02:02:43;22.58;55.22
75088;HTU21D;63664;44.868;40.600;2023-08-17T02:05:11;22.54;55.39
75088;HTU21D;63664;44.868;40.600;2023-08-17T02:07:37;22.50;55.55
75088;HTU21D;63664;44.868;40.600;2023-08-17T02:10:04;22.46;55.75
75088;HTU21D;63664;44.868;40.600;2023-08-17T02:12:32;22.43;55.88
75088;HTU21D;63664;44.868;40.600;2023-08-17T02:14:58;22.40;56.09
75088;HTU21D;63664;44.868;40.600;2023-08-17T02:17:24;22.35;56.28
75088;HTU21D;63664;44.868;40.600;2023-08-17T02:19:50;22.32;56.52
75088;HTU21D;63664;44.868;40.600;2023-08-17T02:22:17;22.27;56.68
75088;HTU21D;63664;44.868;40.600;2023-08-17T02:24:43;22.26;56.81
75088;HTU21D;63664;44.868;40.600;2023-08-17T02:27:09;22.21;57.06
75088;HTU21D;63664;44.868;40.600;2023-08-17T02:29:36;22.16;57.26
75088;HTU21D;63664;44.868;40.600;2023-08-17T02:32:02;22.16;57.40
75088;HTU21D;63664;44.868;40.600;2023-08-17T02:34:28;22.14;57.54
75088;HTU21D;63664;44.868;40.600;2023-08-17T02:36:54;22.09;57.78
75088;HTU21D;63664;44.868;40.600;2023-08-17T02:39:21;22.08;57.97
75088;HTU21D;63664;44.868;40.600;2023-08-17T02:41:47;22.09;58.10
75088;HTU21D;63664;44.868;40.600;2023-08-17T02:44:15;22.08;58.30
75088;HTU21D;63664;44.868;40.600;2023-08-17T02:46:41;22.06;58.47
75088;HTU21D;63664;44.868;40.600;2023-08-17T02:49:07;22.06;58.66
75088;HTU21D;63664;44.868;40.600;2023-08-17T02:51:34;22.05;58.86
75088;HTU21D;63664;44.868;40.600;2023-08-17T02:54:00;22.03;59.06
75088;HTU21D;63664;44.868;40.600;2023-08-17T02:56:26;22.01;59.32
75088;HTU21D;63664;44.868;40.600;2023-08-17T02:58:53;21.98;59.60
75088;HTU21D;63664;44.868;40.600;2023-08-17T03:01:19;21.98;59.84
75088;HTU21D;63664;44.868;40.600;2023-08-17T03:03:48;21.96;60.08
75088;HTU21D;63664;44.868;40.600;2023-08-17T03:06:14;21.95;60.36
75088;HTU21D;63664;44.868;40.600;2023-08-17T03:08:41;21.97;60.58
75088;HTU21D;63664;44.868;40.600;2023-08-17T03:11:07;21.98;60.82
75088;HTU21D;63664;44.868;40.600;2023-08-17T03:13:36;21.99;61.00
75088;HTU21D;63664;44.868;40.600;2023-08-17T03:16:02;22.01;61.21
75088;HTU21D;63664;44.868;40.600;2023-08-17T03:18:30;22.01;61.42
75088;HTU21D;63664;44.868;40.600;2023-08-17T03:20:56;22.02;61.67
75088;HTU21D;63664;44.868;40.600;2023-08-17T03:23:22;22.04;61.91
75088;HTU21D;63664;44.868;40.600;2023-08-17T03:25:54;22.02;62.20
75088;HTU21D;63664;44.868;40.600;2023-08-17T03:28:20;22.05;62.41
75088;HTU21D;63664;44.868;40.600;2023-08-17T03:30:47;22.07;62.63
75088;HTU21D;63664;44.868;40.600;2023-08-17T03:33:13;22.09;62.81
75088;HTU21D;63664;44.868;40.600;2023-08-17T03:35:39;22.12;62.98
75088;HTU21D;63664;44.868;40.600;2023-08-17T03:38:07;22.14;63.02
75088;HTU21D;63664;44.868;40.600;2023-08-17T03:40:33;22.21;63.11
75088;HTU21D;63664;44.868;40.600;2023-08-17T03:43:00;22.24;63.24
75088;HTU21D;63664;44.868;40.600;2023-08-17T03:45:27;22.27;63.31
75088;HTU21D;63664;44.868;40.600;2023-08-17T03:47:55;22.33;63.18
75088;HTU21D;63664;44.868;40.600;2023-08-17T03:50:21;22.37;63.17
75088;HTU21D;63664;44.868;40.600;2023-08-17T03:52:47;22.42;63.21
75088;HTU21D;63664;44.868;40.600;2023-08-17T03:55:14;22.47;63.29
75088;HTU21D;63664;44.868;40.600;2023-08-17T03:57:40;22.49;63.13
75088;HTU21D;63664;44.868;40.600;2023-08-17T04:00:07;22.54;62.91
75088;HTU21D;63664;44.868;40.600;2023-08-17T04:02:39;22.58;62.54
75088;HTU21D;63664;44.868;40.600;2023-08-17T04:05:07;22.65;62.28
75088;HTU21D;63664;44.868;40.600;2023-08-17T04:07:33;22.70;61.98
75088;HTU21D;63664;44.868;40.600;2023-08-17T04:10:00;22.76;61.76
75088;HTU21D;63664;44.868;40.600;2023-08-17T04:12:26;22.83;61.50
75088;HTU21D;63664;44.868;40.600;2023-08-17T04:14:54;22.88;61.38
75088;HTU21D;63664;44.868;40.600;2023-08-17T04:17:20;22.94;61.22
75088;HTU21D;63664;44.868;40.600;2023-08-17T04:19:49;23.00;61.14
75088;HTU21D;63664;44.868;40.600;2023-08-17T04:22:15;23.05;60.95
75088;HTU21D;63664;44.868;40.600;2023-08-17T04:24:42;23.10;60.86
75088;HTU21D;63664;44.868;40.600;2023-08-17T04:27:08;23.16;60.85
75088;HTU21D;63664;44.868;40.600;2023-08-17T04:29:34;23.22;60.87
75088;HTU21D;63664;44.868;40.600;2023-08-17T04:32:03;23.29;60.56
75088;HTU21D;63664;44.868;40.600;2023-08-17T04:34:29;23.39;60.38
75088;HTU21D;63664;44.868;40.600;2023-08-17T04:36:56;23.45;60.22
75088;HTU21D;63664;44.868;40.600;2023-08-17T04:39:22;23.52;60.06
75088;HTU21D;63664;44.868;40.600;2023-08-17T04:41:50;23.60;59.82
75088;HTU21D;63664;44.868;40.600;2023-08-17T04:44:23;23.67;59.64
75088;HTU21D;63664;44.868;40.600;2023-08-17T04:46:49;23.73;59.32
75088;HTU21D;63664;44.868;40.600;2023-08-17T04:49:15;23.81;59.08
75088;HTU21D;63664;44.868;40.600;2023-08-17T04:51:42;23.88;58.94
75088;HTU21D;63664;44.868;40.600;2023-08-17T04:54:08;23.94;58.83
75088;HTU21D;63664;44.868;40.600;2023-08-17T04:56:34;23.99;58.79
75088;HTU21D;63664;44.868;40.600;2023-08-17T04:59:00;24.06;58.79
75088;HTU21D;63664;44.868;40.600;2023-08-17T05:01:28;24.16;58.58
75088;HTU21D;63664;44.868;40.600;2023-08-17T05:03:55;24.25;58.59
75088;HTU21D;63664;44.868;40.600;2023-08-17T05:06:23;24.33;58.42
75088;HTU21D;63664;44.868;40.600;2023-08-17T05:08:50;24.43;58.03
75088;HTU21D;63664;44.868;40.600;2023-08-17T05:11:17;24.54;57.77
75088;HTU21D;63664;44.868;40.600;2023-08-17T05:13:44;24.65;57.69
75088;HTU21D;63664;44.868;40.600;2023-08-17T05:16:10;24.77;57.35
75088;HTU21D;63664;44.868;40.600;2023-08-17T05:18:36;24.89;57.22
75088;HTU21D;63664;44.868;40.600;2023-08-17T05:21:03;25.06;56.59
75088;HTU21D;63664;44.868;40.600;2023-08-17T05:23:31;25.22;56.15
75088;HTU21D;63664;44.868;40.600;2023-08-17T05:25:58;25.38;56.02
75088;HTU21D;63664;44.868;40.600;2023-08-17T05:28:24;25.53;55.89
75088;HTU21D;63664;44.868;40.600;2023-08-17T05:30:51;25.72;55.45
75088;HTU21D;63664;44.868;40.600;2023-08-17T05:33:17;25.84;54.88
75088;HTU21D;63664;44.868;40.600;2023-08-17T05:35:43;26.04;54.36
75088;HTU21D;63664;44.868;40.600;2023-08-17T05:38:10;26.23;54.20
75088;HTU21D;63664;44.868;40.600;2023-08-17T05:40:36;26.43;53.79
75088;HTU21D;63664;44.868;40.600;2023-08-17T05:43:02;26.67;53.04
75088;HTU21D;63664;44.868;40.600;2023-08-17T05:45:29;26.89;52.62
75088;HTU21D;63664;44.868;40.600;2023-08-17T05:47:55;27.10;52.20
75088;HTU21D;63664;44.868;40.600;2023-08-17T05:50:21;27.30;51.53
75088;HTU21D;63664;44.868;40.600;2023-08-17T05:52:47;27.50;51.25
75088;HTU21D;63664;44.868;40.600;2023-08-17T05:55:14;27.70;50.50
75088;HTU21D;63664;44.868;40.600;2023-08-17T05:57:40;27.94;50.03
75088;HTU21D;63664;44.868;40.600;2023-08-17T06:00:07;28.13;49.34
75088;HTU21D;63664;44.868;40.600;2023-08-17T06:02:39;28.34;48.66
75088;HTU21D;63664;44.868;40.600;2023-08-17T06:05:06;28.56;48.17
75088;HTU21D;63664;44.868;40.600;2023-08-17T06:07:33;28.77;47.55
75088;HTU21D;63664;44.868;40.600;2023-08-17T06:10:02;28.98;46.80
75088;HTU21D;63664;44.868;40.600;2023-08-17T06:12:29;29.17;46.22
75088;HTU21D;63664;44.868;40.600;2023-08-17T06:14:55;29.35;45.66
75088;HTU21D;63664;44.868;40.600;2023-08-17T06:17:21;29.57;45.10
75088;HTU21D;63664;44.868;40.600;2023-08-17T06:19:47;29.77;44.42
75088;HTU21D;63664;44.868;40.600;2023-08-17T06:22:14;29.95;43.84
75088;HTU21D;63664;44.868;40.600;2023-08-17T06:24:40;30.11;43.41
75088;HTU21D;63664;44.868;40.600;2023-08-17T06:27:06;30.28;43.20
75088;HTU21D;63664;44.868;40.600;2023-08-17T06:29:33;30.49;42.74
75088;HTU21D;63664;44.868;40.600;2023-08-17T06:31:59;30.69;42.49
75088;HTU21D;63664;44.868;40.600;2023-08-17T06:34:25;30.92;42.13
75088;HTU21D;63664;44.868;40.600;2023-08-17T06:36:59;31.16;41.53
75088;HTU21D;63664;44.868;40.600;2023-08-17T06:39:25;31.41;40.94
75088;HTU21D;63664;44.868;40.600;2023-08-17T06:41:52;31.58;40.48
75088;HTU21D;63664;44.868;40.600;2023-08-17T06:44:18;31.75;40.03
75088;HTU21D;63664;44.868;40.600;2023-08-17T06:46:44;31.92;39.72
75088;HTU21D;63664;44.868;40.600;2023-08-17T06:49:11;32.08;39.17
75088;HTU21D;63664;44.868;40.600;2023-08-17T06:51:39;32.23;38.75
75088;HTU21D;63664;44.868;40.600;2023-08-17T06:54:08;32.39;38.21
75088;HTU21D;63664;44.868;40.600;2023-08-17T06:56:35;32.55;37.94
75088;HTU21D;63664;44.868;40.600;2023-08-17T06:59:01;32.76;37.59
75088;HTU21D;63664;44.868;40.600;2023-08-17T07:01:29;32.96;37.06
75088;HTU21D;63664;44.868;40.600;2023-08-17T07:03:56;33.13;36.80
75088;HTU21D;63664;44.868;40.600;2023-08-17T07:06:24;33.30;36.49
75088;HTU21D;63664;44.868;40.600;2023-08-17T07:08:50;33.50;35.85
75088;HTU21D;63664;44.868;40.600;2023-08-17T07:11:18;33.70;35.33
75088;HTU21D;63664;44.868;40.600;2023-08-17T07:13:45;33.89;35.00
75088;HTU21D;63664;44.868;40.600;2023-08-17T07:16:11;34.11;34.63
75088;HTU21D;63664;44.868;40.600;2023-08-17T07:18:37;34.24;34.30
75088;HTU21D;63664;44.868;40.600;2023-08-17T07:21:03;34.35;33.91
75088;HTU21D;63664;44.868;40.600;2023-08-17T07:23:30;34.44;33.48
75088;HTU21D;63664;44.868;40.600;2023-08-17T07:25:56;34.55;33.42
75088;HTU21D;63664;44.868;40.600;2023-08-17T07:28:22;34.64;32.90
75088;HTU21D;63664;44.868;40.600;2023-08-17T07:30:48;34.73;32.65
75088;HTU21D;63664;44.868;40.600;2023-08-17T07:33:15;34.88;32.22
75088;HTU21D;63664;44.868;40.600;2023-08-17T07:35:41;35.00;32.06
75088;HTU21D;63664;44.868;40.600;2023-08-17T07:38:07;35.13;31.60
75088;HTU21D;63664;44.868;40.600;2023-08-17T07:40:34;35.23;31.22
75088;HTU21D;63664;44.868;40.600;2023-08-17T07:43:00;35.37;31.23
75088;HTU21D;63664;44.868;40.600;2023-08-17T07:45:27;35.53;30.64
75088;HTU21D;63664;44.868;40.600;2023-08-17T07:47:54;35.63;30.74
75088;HTU21D;63664;44.868;40.600;2023-08-17T07:50:20;35.74;30.44
75088;HTU21D;63664;44.868;40.600;2023-08-17T07:52:47;35.83;30.03
75088;HTU21D;63664;44.868;40.600;2023-08-17T07:55:13;35.87;30.01
75088;HTU21D;63664;44.868;40.600;2023-08-17T07:57:40;35.97;29.91
75088;HTU21D;63664;44.868;40.600;2023-08-17T08:00:07;36.09;29.68
75088;HTU21D;63664;44.868;40.600;2023-08-17T08:02:43;36.13;29.61
75088;HTU21D;63664;44.868;40.600;2023-08-17T08:05:09;36.19;29.44
75088;HTU21D;63664;44.868;40.600;2023-08-17T08:07:35;36.26;28.95
75088;HTU21D;63664;44.868;40.600;2023-08-17T08:10:02;36.37;28.70
75088;HTU21D;63664;44.868;40.600;2023-08-17T08:12:28;36.46;28.64
75088;HTU21D;63664;44.868;40.600;2023-08-17T08:14:55;36.66;28.31
75088;HTU21D;63664;44.868;40.600;2023-08-17T08:17:21;36.78;28.13
75088;HTU21D;63664;44.868;40.600;2023-08-17T08:19:47;36.85;27.77
75088;HTU21D;63664;44.868;40.600;2023-08-17T08:22:14;36.98;27.78
75088;HTU21D;63664;44.868;40.600;2023-08-17T08:24:40;37.12;27.39
75088;HTU21D;63664;44.868;40.600;2023-08-17T08:27:07;37.22;27.23
75088;HTU21D;63664;44.868;40.600;2023-08-17T08:29:33;37.30;26.92
75088;HTU21D;63664;44.868;40.600;2023-08-17T08:32:00;37.21;26.51
75088;HTU21D;63664;44.868;40.600;2023-08-17T08:34:28;37.14;26.58
75088;HTU21D;63664;44.868;40.600;2023-08-17T08:36:55;37.23;26.56
75088;HTU21D;63664;44.868;40.600;2023-08-17T08:39:21;37.27;26.65
75088;HTU21D;63664;44.868;40.600;2023-08-17T08:41:47;37.44;26.37
75088;HTU21D;63664;44.868;40.600;2023-08-17T08:44:14;37.43;26.21
75088;HTU21D;63664;44.868;40.600;2023-08-17T08:46:40;37.55;26.38
75088;HTU21D;63664;44.868;40.600;2023-08-17T08:49:11;37.64;26.17
75088;HTU21D;63664;44.868;40.600;2023-08-17T08:51:43;37.85;26.18
75088;HTU21D;63664;44.868;40.600;2023-08-17T08:54:14;38.08;25.53
75088;HTU21D;63664;44.868;40.600;2023-08-17T08:56:54;38.22;25.51
75088;HTU21D;63664;44.868;40.600;2023-08-17T08:59:26;38.29;25.36
75088;HTU21D;63664;44.868;40.600;2023-08-17T09:01:55;38.15;25.11
75088;HTU21D;63664;44.868;40.600;2023-08-17T09:04:24;38.04;25.23
75088;HTU21D;63664;44.868;40.600;2023-08-17T09:06:51;38.09;24.98
75088;HTU21D;63664;44.868;40.600;2023-08-17T09:09:20;38.16;24.86
75088;HTU21D;63664;44.868;40.600;2023-08-17T09:11:47;38.18;24.93
75088;HTU21D;63664;44.868;40.600;2023-08-17T09:14:13;38.45;24.80
75088;HTU21D;63664;44.868;40.600;2023-08-17T09:16:39;38.66;24.67
75088;HTU21D;63664;44.868;40.600;2023-08-17T09:19:06;38.79;24.51
75088;HTU21D;63664;44.868;40.600;2023-08-17T09:21:33;38.82;24.36
75088;HTU21D;63664;44.868;40.600;2023-08-17T09:23:59;38.79;24.14
75088;HTU21D;63664;44.868;40.600;2023-08-17T09:26:31;38.69;24.10
75088;HTU21D;63664;44.868;40.600;2023-08-17T09:28:59;38.70;23.98
75088;HTU21D;63664;44.868;40.600;2023-08-17T09:31:31;38.81;23.83
75088;HTU21D;63664;44.868;40.600;2023-08-17T09:33:58;38.84;23.59
75088;HTU21D;63664;44.868;40.600;2023-08-17T09:36:26;38.81;23.54
75088;HTU21D;63664;44.868;40.600;2023-08-17T09:38:52;38.95;23.48
75088;HTU21D;63664;44.868;40.600;2023-08-17T09:41:19;38.89;23.17
75088;HTU21D;63664;44.868;40.600;2023-08-17T09:43:48;38.98;23.34
75088;HTU21D;63664;44.868;40.600;2023-08-17T09:46:14;39.07;23.06
75088;HTU21D;63664;44.868;40.600;2023-08-17T09:48:43;38.95;22.69
75088;HTU21D;63664;44.868;40.600;2023-08-17T09:51:16;38.79;22.72
75088;HTU21D;63664;44.868;40.600;2023-08-17T09:53:42;38.77;22.85
75088;HTU21D;63664;44.868;40.600;2023-08-17T09:56:10;38.80;22.92
75088;HTU21D;63664;44.868;40.600;2023-08-17T09:58:39;38.96;22.82
75088;HTU21D;63664;44.868;40.600;2023-08-17T10:01:07;39.11;22.68
75088;HTU21D;63664;44.868;40.600;2023-08-17T10:03:34;39.24;23.17
75088;HTU21D;63664;44.868;40.600;2023-08-17T10:06:06;39.26;22.68
75088;HTU21D;63664;44.868;40.600;2023-08-17T10:08:47;39.22;22.46
75088;HTU21D;63664;44.868;40.600;2023-08-17T10:11:19;39.26;22.53
75088;HTU21D;63664;44.868;40.600;2023-08-17T10:13:59;39.39;22.43
75088;HTU21D;63664;44.868;40.600;2023-08-17T10:16:51;39.40;22.28
75088;HTU21D;63664;44.868;40.600;2023-08-17T10:19:37;39.41;22.22
75088;HTU21D;63664;44.868;40.600;2023-08-17T10:23:04;39.47;22.20
75088;HTU21D;63664;44.868;40.600;2023-08-17T10:25:12;39.48;21.98
75088;HTU21D;63664;44.868;40.600;2023-08-17T10:27:42;39.47;22.59
75088;HTU21D;63664;44.868;40.600;2023-08-17T10:30:10;39.41;22.29
75088;HTU21D;63664;44.868;40.600;2023-08-17T10:32:37;39.36;22.08
75088;HTU21D;63664;44.868;40.600;2023-08-17T10:35:06;39.40;21.85
75088;HTU21D;63664;44.868;40.600;2023-08-17T10:37:34;39.41;21.93
75088;HTU21D;63664;44.868;40.600;2023-08-17T10:40:01;39.54;21.67
75088;HTU21D;63664;44.868;40.600;2023-08-17T10:42:36;39.55;21.55
75088;HTU21D;63664;44.868;40.600;2023-08-17T10:45:31;39.47;21.76
75088;HTU21D;63664;44.868;40.600;2023-08-17T10:50:37;39.54;21.49
75088;HTU21D;63664;44.868;40.600;2023-08-17T10:53:13;39.44;21.57
75088;HTU21D;63664;44.868;40.600;2023-08-17T10:55:47;39.29;21.48
75088;HTU21D;63664;44.868;40.600;2023-08-17T10:58:18;39.17;21.69
75088;HTU21D;63664;44.868;40.600;2023-08-17T11:00:44;39.15;21.63
75088;HTU21D;63664;44.868;40.600;2023-08-17T11:03:20;39.24;21.43
75088;HTU21D;63664;44.868;40.600;2023-08-17T11:05:51;39.26;21.47
75088;HTU21D;63664;44.868;40.600;2023-08-17T11:11:26;39.39;21.24
75088;HTU21D;63664;44.868;40.600;2023-08-17T11:13:57;39.42;21.25
75088;HTU21D;63664;44.868;40.600;2023-08-17T11:16:23;39.49;21.18
75088;HTU21D;63664;44.868;40.600;2023-08-17T11:18:51;39.43;21.18
75088;HTU21D;63664;44.868;40.600;2023-08-17T11:21:18;39.48;21.27
75088;HTU21D;63664;44.868;40.600;2023-08-17T11:23:44;39.47;21.13
75088;HTU21D;63664;44.868;40.600;2023-08-17T11:26:11;39.41;21.08
75088;HTU21D;63664;44.868;40.600;2023-08-17T11:28:37;39.40;21.07
75088;HTU21D;63664;44.868;40.600;2023-08-17T11:31:09;39.27;21.08
75088;HTU21D;63664;44.868;40.600;2023-08-17T11:33:37;39.13;21.25
75088;HTU21D;63664;44.868;40.600;2023-08-17T11:36:06;39.07;21.16
75088;HTU21D;63664;44.868;40.600;2023-08-17T11:38:35;38.94;21.03
75088;HTU21D;63664;44.868;40.600;2023-08-17T11:41:02;38.85;21.10
75088;HTU21D;63664;44.868;40.600;2023-08-17T11:43:30;38.78;21.21
75088;HTU21D;63664;44.868;40.600;2023-08-17T11:45:57;38.88;21.28
75088;HTU21D;63664;44.868;40.600;2023-08-17T11:48:24;38.99;21.23
75088;HTU21D;63664;44.868;40.600;2023-08-17T11:50:52;39.06;21.12
75088;HTU21D;63664;44.868;40.600;2023-08-17T11:53:19;39.09;21.08
75088;HTU21D;63664;44.868;40.600;2023-08-17T11:55:45;39.06;21.18
75088;HTU21D;63664;44.868;40.600;2023-08-17T11:58:11;38.97;21.27
75088;HTU21D;63664;44.868;40.600;2023-08-17T12:00:43;38.92;21.31
75088;HTU21D;63664;44.868;40.600;2023-08-17T12:03:14;38.83;21.37
75088;HTU21D;63664;44.868;40.600;2023-08-17T12:05:45;38.76;21.34
75088;HTU21D;63664;44.868;40.600;2023-08-17T12:08:13;38.56;21.34
75088;HTU21D;63664;44.868;40.600;2023-08-17T12:10:44;38.52;21.57
75088;HTU21D;63664;44.868;40.600;2023-08-17T12:13:11;38.54;21.25
75088;HTU21D;63664;44.868;40.600;2023-08-17T12:15:39;38.37;21.79
75088;HTU21D;63664;44.868;40.600;2023-08-17T12:18:06;38.24;21.68
75088;HTU21D;63664;44.868;40.600;2023-08-17T12:20:35;38.15;21.82
75088;HTU21D;63664;44.868;40.600;2023-08-17T12:23:03;38.21;21.79
75088;HTU21D;63664;44.868;40.600;2023-08-17T12:25:30;38.16;21.66
75088;HTU21D;63664;44.868;40.600;2023-08-17T12:28:00;38.07;21.75
75088;HTU21D;63664;44.868;40.600;2023-08-17T12:30:31;38.07;21.73
75088;HTU21D;63664;44.868;40.600;2023-08-17T12:32:58;38.06;21.66
75088;HTU21D;63664;44.868;40.600;2023-08-17T12:35:26;37.94;21.74
75088;HTU21D;63664;44.868;40.600;2023-08-17T12:37:53;37.88;21.71
75088;HTU21D;63664;44.868;40.600;2023-08-17T12:40:20;37.77;21.85
75088;HTU21D;63664;44.868;40.600;2023-08-17T12:42:47;37.67;21.85
75088;HTU21D;63664;44.868;40.600;2023-08-17T12:45:14;37.64;22.06
75088;HTU21D;63664;44.868;40.600;2023-08-17T12:47:41;37.69;22.02
75088;HTU21D;63664;44.868;40.600;2023-08-17T12:50:08;37.61;22.22
75088;HTU21D;63664;44.868;40.600;2023-08-17T12:52:34;37.59;22.18
75088;HTU21D;63664;44.868;40.600;2023-08-17T12:55:01;37.47;22.15
75088;HTU21D;63664;44.868;40.600;2023-08-17T12:57:28;37.38;22.28
75088;HTU21D;63664;44.868;40.600;2023-08-17T12:59:55;37.34;22.38
75088;HTU21D;63664;44.868;40.600;2023-08-17T13:02:21;37.28;22.50
75088;HTU21D;63664;44.868;40.600;2023-08-17T13:04:48;37.22;22.49
75088;HTU21D;63664;44.868;40.600;2023-08-17T13:07:15;37.11;22.39
75088;HTU21D;63664;44.868;40.600;2023-08-17T13:09:43;37.01;22.49
75088;HTU21D;63664;44.868;40.600;2023-08-17T13:12:11;36.95;22.76
75088;HTU21D;63664;44.868;40.600;2023-08-17T13:14:38;36.90;22.92
75088;HTU21D;63664;44.868;40.600;2023-08-17T13:17:04;36.92;22.97
75088;HTU21D;63664;44.868;40.600;2023-08-17T13:19:30;36.91;23.00
75088;HTU21D;63664;44.868;40.600;2023-08-17T13:21:57;36.86;23.01
75088;HTU21D;63664;44.868;40.600;2023-08-17T13:24:23;36.76;23.05
75088;HTU21D;63664;44.868;40.600;2023-08-17T13:26:49;36.71;23.23
75088;HTU21D;63664;44.868;40.600;2023-08-17T13:29:19;36.57;23.27
75088;HTU21D;63664;44.868;40.600;2023-08-17T13:31:47;36.45;23.40
75088;HTU21D;63664;44.868;40.600;2023-08-17T13:34:14;36.38;23.48
75088;HTU21D;63664;44.868;40.600;2023-08-17T13:36:40;36.31;23.52
75088;HTU21D;63664;44.868;40.600;2023-08-17T13:39:07;36.24;23.56
75088;HTU21D;63664;44.868;40.600;2023-08-17T13:41:33;36.22;23.66
75088;HTU21D;63664;44.868;40.600;2023-08-17T13:44:00;36.17;23.71
75088;HTU21D;63664;44.868;40.600;2023-08-17T13:46:28;36.10;23.72
75088;HTU21D;63664;44.868;40.600;2023-08-17T13:48:54;36.03;23.78
75088;HTU21D;63664;44.868;40.600;2023-08-17T13:51:21;35.96;23.90
75088;HTU21D;63664;44.868;40.600;2023-08-17T13:53:47;35.96;23.95
75088;HTU21D;63664;44.868;40.600;2023-08-17T13:56:13;35.90;24.02
75088;HTU21D;63664;44.868;40.600;2023-08-17T13:58:40;35.82;24.04
75088;HTU21D;63664;44.868;40.600;2023-08-17T14:01:06;35.70;24.11
75088;HTU21D;63664;44.868;40.600;2023-08-17T14:03:32;35.64;24.15
75088;HTU21D;63664;44.868;40.600;2023-08-17T14:05:59;35.57;24.20
75088;HTU21D;63664;44.868;40.600;2023-08-17T14:08:25;35.54;24.24
75088;HTU21D;63664;44.868;40.600;2023-08-17T14:10:51;35.48;24.32
75088;HTU21D;63664;44.868;40.600;2023-08-17T14:13:18;35.43;24.43
75088;HTU21D;63664;44.868;40.600;2023-08-17T14:15:44;35.43;24.49
75088;HTU21D;63664;44.868;40.600;2023-08-17T14:18:10;35.43;24.49
75088;HTU21D;63664;44.868;40.600;2023-08-17T14:20:36;35.39;24.55
75088;HTU21D;63664;44.868;40.600;2023-08-17T14:23:03;35.33;24.64
75088;HTU21D;63664;44.868;40.600;2023-08-17T14:25:29;35.26;24.70
75088;HTU21D;63664;44.868;40.600;2023-08-17T14:27:57;35.20;24.74
75088;HTU21D;63664;44.868;40.600;2023-08-17T14:30:25;35.06;24.87
75088;HTU21D;63664;44.868;40.600;2023-08-17T14:32:52;34.99;24.91
75088;HTU21D;63664;44.868;40.600;2023-08-17T14:35:18;34.92;24.94
75088;HTU21D;63664;44.868;40.600;2023-08-17T14:37:44;34.83;25.10
75088;HTU21D;63664;44.868;40.600;2023-08-17T14:40:11;34.74;25.17
75088;HTU21D;63664;44.868;40.600;2023-08-17T14:42:37;34.66;25.30
75088;HTU21D;63664;44.868;40.600;2023-08-17T14:45:04;34.59;25.32
75088;HTU21D;63664;44.868;40.600;2023-08-17T14:47:31;34.50;25.36
75088;HTU21D;63664;44.868;40.600;2023-08-17T14:49:57;34.40;25.41
75088;HTU21D;63664;44.868;40.600;2023-08-17T14:52:23;34.32;25.63
75088;HTU21D;63664;44.868;40.600;2023-08-17T14:54:52;34.25;25.60
75088;HTU21D;63664;44.868;40.600;2023-08-17T14:57:18;34.15;25.71
75088;HTU21D;63664;44.868;40.600;2023-08-17T14:59:44;34.07;25.85
75088;HTU21D;63664;44.868;40.600;2023-08-17T15:02:10;34.03;25.96
75088;HTU21D;63664;44.868;40.600;2023-08-17T15:04:37;33.96;26.06
75088;HTU21D;63664;44.868;40.600;2023-08-17T15:07:05;33.90;26.14
75088;HTU21D;63664;44.868;40.600;2023-08-17T15:09:38;33.83;26.22
75088;HTU21D;63664;44.868;40.600;2023-08-17T15:12:05;33.79;26.30